Terminal Aerodrome Forecast
Issued by NWS Charleston, WV

Current Version | Previous Version | Graphics & Text | Print | Product List | Glossary On
Versions: 1 2 3 4 5 6 7 8 9 10 11 12 13 14 15 16 17 18 19 20 21 22 23 24 25 26 27 28
355
FTUS41 KRLX 201121
TAFEKN
TAF
KEKN 201121Z 2012/2112 16006KT 5SM -RA SCT015 OVC035
      TEMPO 2012/2015 3SM -RA BR OVC015
     FM201500 15004KT P6SM -SHRA OVC015
     FM201800 22007KT P6SM OVC025
     FM210100 23003KT P6SM OVC030
     FM210700 18002KT 4SM BR BKN035
     FM211000 19002KT 1SM BR SCT001 BKN040=

USA.gov is the U.S. government's official web portal to all federal, state and local government web resources and services.